sensor_id;sensor_type;location;lat;lon;timestamp;P1;durP1;ratioP1;P2;durP2;ratioP2
12689;SDS011;6409;56.294;14.480;2022-08-20T00:01:49;7.03;;;5.33;;
12689;SDS011;6409;56.294;14.480;2022-08-20T00:04:16;6.70;;;4.60;;
12689;SDS011;6409;56.294;14.480;2022-08-20T00:06:43;5.63;;;4.50;;
12689;SDS011;6409;56.294;14.480;2022-08-20T00:09:10;8.90;;;5.30;;
12689;SDS011;6409;56.294;14.480;2022-08-20T00:11:38;8.53;;;4.60;;
12689;SDS011;6409;56.294;14.480;2022-08-20T00:14:05;5.97;;;4.43;;
12689;SDS011;6409;56.294;14.480;2022-08-20T00:16:33;7.10;;;4.80;;
12689;SDS011;6409;56.294;14.480;2022-08-20T00:19:02;5.93;;;4.27;;
12689;SDS011;6409;56.294;14.480;2022-08-20T00:21:30;6.43;;;4.83;;
12689;SDS011;6409;56.294;14.480;2022-08-20T00:23:57;5.87;;;4.60;;
12689;SDS011;6409;56.294;14.480;2022-08-20T00:26:24;7.13;;;5.30;;
12689;SDS011;6409;56.294;14.480;2022-08-20T00:28:53;7.83;;;4.60;;
12689;SDS011;6409;56.294;14.480;2022-08-20T00:31:20;6.13;;;4.60;;
12689;SDS011;6409;56.294;14.480;2022-08-20T00:33:48;5.43;;;4.50;;
12689;SDS011;6409;56.294;14.480;2022-08-20T00:36:15;6.90;;;4.33;;
12689;SDS011;6409;56.294;14.480;2022-08-20T00:38:43;5.07;;;4.27;;
12689;SDS011;6409;56.294;14.480;2022-08-20T00:41:12;6.00;;;4.73;;
12689;SDS011;6409;56.294;14.480;2022-08-20T00:43:42;6.30;;;4.70;;
12689;SDS011;6409;56.294;14.480;2022-08-20T00:46:13;6.43;;;4.80;;
12689;SDS011;6409;56.294;14.480;2022-08-20T00:48:43;5.60;;;4.83;;
12689;SDS011;6409;56.294;14.480;2022-08-20T00:51:13;5.73;;;4.70;;
12689;SDS011;6409;56.294;14.480;2022-08-20T00:53:44;5.87;;;5.27;;
12689;SDS011;6409;56.294;14.480;2022-08-20T00:56:11;9.90;;;4.90;;
12689;SDS011;6409;56.294;14.480;2022-08-20T00:58:39;7.90;;;4.60;;
12689;SDS011;6409;56.294;14.480;2022-08-20T01:01:09;7.03;;;4.97;;
12689;SDS011;6409;56.294;14.480;2022-08-20T01:03:38;6.23;;;4.63;;
12689;SDS011;6409;56.294;14.480;2022-08-20T01:06:06;6.60;;;4.87;;
12689;SDS011;6409;56.294;14.480;2022-08-20T01:08:36;5.60;;;4.07;;
12689;SDS011;6409;56.294;14.480;2022-08-20T01:11:04;5.47;;;4.60;;
12689;SDS011;6409;56.294;14.480;2022-08-20T01:13:37;5.07;;;4.40;;
12689;SDS011;6409;56.294;14.480;2022-08-20T01:16:07;6.57;;;5.10;;
12689;SDS011;6409;56.294;14.480;2022-08-20T01:18:39;6.33;;;4.50;;
12689;SDS011;6409;56.294;14.480;2022-08-20T01:21:07;6.30;;;4.50;;
12689;SDS011;6409;56.294;14.480;2022-08-20T01:26:20;9.80;;;4.60;;
12689;SDS011;6409;56.294;14.480;2022-08-20T01:28:50;5.57;;;4.07;;
12689;SDS011;6409;56.294;14.480;2022-08-20T01:31:20;6.87;;;5.10;;
12689;SDS011;6409;56.294;14.480;2022-08-20T01:33:47;6.33;;;4.63;;
12689;SDS011;6409;56.294;14.480;2022-08-20T01:36:16;5.30;;;4.47;;
12689;SDS011;6409;56.294;14.480;2022-08-20T01:38:44;5.90;;;4.70;;
12689;SDS011;6409;56.294;14.480;2022-08-20T01:41:15;5.03;;;4.27;;
12689;SDS011;6409;56.294;14.480;2022-08-20T01:43:49;5.90;;;4.43;;
12689;SDS011;6409;56.294;14.480;2022-08-20T01:46:21;5.63;;;4.50;;
12689;SDS011;6409;56.294;14.480;2022-08-20T01:48:50;5.70;;;4.60;;
12689;SDS011;6409;56.294;14.480;2022-08-20T01:51:19;6.57;;;4.90;;
12689;SDS011;6409;56.294;14.480;2022-08-20T01:53:47;5.67;;;4.63;;
12689;SDS011;6409;56.294;14.480;2022-08-20T01:56:17;7.20;;;5.20;;
12689;SDS011;6409;56.294;14.480;2022-08-20T01:58:48;5.50;;;4.50;;
12689;SDS011;6409;56.294;14.480;2022-08-20T02:01:18;8.70;;;5.57;;
12689;SDS011;6409;56.294;14.480;2022-08-20T02:03:46;8.63;;;5.40;;
12689;SDS011;6409;56.294;14.480;2022-08-20T02:06:14;7.40;;;5.60;;
12689;SDS011;6409;56.294;14.480;2022-08-20T02:08:41;6.47;;;4.80;;
12689;SDS011;6409;56.294;14.480;2022-08-20T02:11:08;6.17;;;4.77;;
12689;SDS011;6409;56.294;14.480;2022-08-20T02:13:35;6.47;;;5.27;;
12689;SDS011;6409;56.294;14.480;2022-08-20T02:16:04;7.80;;;5.23;;
12689;SDS011;6409;56.294;14.480;2022-08-20T02:18:31;8.03;;;5.70;;
12689;SDS011;6409;56.294;14.480;2022-08-20T02:20:58;6.17;;;4.93;;
12689;SDS011;6409;56.294;14.480;2022-08-20T02:23:25;5.57;;;4.90;;
12689;SDS011;6409;56.294;14.480;2022-08-20T02:25:52;6.93;;;4.97;;
12689;SDS011;6409;56.294;14.480;2022-08-20T02:28:19;6.93;;;5.40;;
12689;SDS011;6409;56.294;14.480;2022-08-20T02:30:48;8.10;;;5.13;;
12689;SDS011;6409;56.294;14.480;2022-08-20T02:33:19;7.83;;;5.57;;
12689;SDS011;6409;56.294;14.480;2022-08-20T02:35:47;8.03;;;5.67;;
12689;SDS011;6409;56.294;14.480;2022-08-20T02:38:15;7.73;;;5.40;;
12689;SDS011;6409;56.294;14.480;2022-08-20T02:40:42;8.80;;;6.37;;
12689;SDS011;6409;56.294;14.480;2022-08-20T02:43:10;6.47;;;5.27;;
12689;SDS011;6409;56.294;14.480;2022-08-20T02:45:38;6.80;;;5.07;;
12689;SDS011;6409;56.294;14.480;2022-08-20T02:48:08;9.27;;;5.90;;
12689;SDS011;6409;56.294;14.480;2022-08-20T02:50:42;8.63;;;5.27;;
12689;SDS011;6409;56.294;14.480;2022-08-20T02:53:09;6.63;;;4.93;;
12689;SDS011;6409;56.294;14.480;2022-08-20T02:55:36;7.70;;;5.40;;
12689;SDS011;6409;56.294;14.480;2022-08-20T02:58:04;6.17;;;5.30;;
12689;SDS011;6409;56.294;14.480;2022-08-20T03:00:31;7.00;;;4.47;;
12689;SDS011;6409;56.294;14.480;2022-08-20T03:02:59;8.77;;;5.63;;
12689;SDS011;6409;56.294;14.480;2022-08-20T03:05:26;7.97;;;5.97;;
12689;SDS011;6409;56.294;14.480;2022-08-20T03:07:54;6.93;;;5.50;;
12689;SDS011;6409;56.294;14.480;2022-08-20T03:10:22;8.20;;;6.00;;
12689;SDS011;6409;56.294;14.480;2022-08-20T03:12:49;7.87;;;5.57;;
12689;SDS011;6409;56.294;14.480;2022-08-20T03:15:17;9.30;;;5.60;;
12689;SDS011;6409;56.294;14.480;2022-08-20T03:17:44;8.23;;;4.87;;
12689;SDS011;6409;56.294;14.480;2022-08-20T03:20:11;8.83;;;5.57;;
12689;SDS011;6409;56.294;14.480;2022-08-20T03:22:39;6.57;;;4.97;;
12689;SDS011;6409;56.294;14.480;2022-08-20T03:25:08;6.97;;;5.10;;
12689;SDS011;6409;56.294;14.480;2022-08-20T03:27:36;8.13;;;5.43;;
12689;SDS011;6409;56.294;14.480;2022-08-20T03:30:03;8.63;;;5.67;;
12689;SDS011;6409;56.294;14.480;2022-08-20T03:32:31;7.10;;;5.53;;
12689;SDS011;6409;56.294;14.480;2022-08-20T03:34:58;8.37;;;5.73;;
12689;SDS011;6409;56.294;14.480;2022-08-20T03:37:27;9.10;;;5.50;;
12689;SDS011;6409;56.294;14.480;2022-08-20T03:39:55;7.37;;;5.87;;
12689;SDS011;6409;56.294;14.480;2022-08-20T03:42:23;9.87;;;6.00;;
12689;SDS011;6409;56.294;14.480;2022-08-20T03:44:50;9.27;;;6.07;;
12689;SDS011;6409;56.294;14.480;2022-08-20T03:47:18;7.93;;;6.03;;
12689;SDS011;6409;56.294;14.480;2022-08-20T03:49:44;6.30;;;5.00;;
12689;SDS011;6409;56.294;14.480;2022-08-20T03:52:11;8.23;;;5.30;;
12689;SDS011;6409;56.294;14.480;2022-08-20T03:54:41;6.70;;;5.00;;
12689;SDS011;6409;56.294;14.480;2022-08-20T03:57:11;8.63;;;6.07;;
12689;SDS011;6409;56.294;14.480;2022-08-20T03:59:40;7.13;;;5.53;;
12689;SDS011;6409;56.294;14.480;2022-08-20T04:02:07;8.47;;;5.63;;
12689;SDS011;6409;56.294;14.480;2022-08-20T04:04:35;8.23;;;5.77;;
12689;SDS011;6409;56.294;14.480;2022-08-20T04:07:07;8.20;;;6.27;;
12689;SDS011;6409;56.294;14.480;2022-08-20T04:09:35;7.30;;;5.90;;
12689;SDS011;6409;56.294;14.480;2022-08-20T04:12:02;6.87;;;5.73;;
12689;SDS011;6409;56.294;14.480;2022-08-20T04:14:29;8.63;;;6.23;;
12689;SDS011;6409;56.294;14.480;2022-08-20T04:16:58;9.67;;;6.13;;
12689;SDS011;6409;56.294;14.480;2022-08-20T04:19:29;10.33;;;6.77;;
12689;SDS011;6409;56.294;14.480;2022-08-20T04:21:57;10.37;;;7.13;;
12689;SDS011;6409;56.294;14.480;2022-08-20T04:24:24;9.53;;;6.67;;
12689;SDS011;6409;56.294;14.480;2022-08-20T04:26:52;10.47;;;6.80;;
12689;SDS011;6409;56.294;14.480;2022-08-20T04:29:19;9.93;;;6.50;;
12689;SDS011;6409;56.294;14.480;2022-08-20T04:31:46;10.33;;;7.63;;
12689;SDS011;6409;56.294;14.480;2022-08-20T04:34:15;8.93;;;6.77;;
12689;SDS011;6409;56.294;14.480;2022-08-20T04:36:43;10.90;;;7.43;;
12689;SDS011;6409;56.294;14.480;2022-08-20T04:39:11;10.30;;;7.47;;
12689;SDS011;6409;56.294;14.480;2022-08-20T04:41:37;11.40;;;7.77;;
12689;SDS011;6409;56.294;14.480;2022-08-20T04:44:05;12.10;;;7.67;;
12689;SDS011;6409;56.294;14.480;2022-08-20T04:46:33;11.33;;;7.67;;
12689;SDS011;6409;56.294;14.480;2022-08-20T04:49:00;21.47;;;8.17;;
12689;SDS011;6409;56.294;14.480;2022-08-20T04:51:29;11.17;;;7.60;;
12689;SDS011;6409;56.294;14.480;2022-08-20T04:53:57;13.63;;;7.13;;
12689;SDS011;6409;56.294;14.480;2022-08-20T04:56:25;13.40;;;8.23;;
12689;SDS011;6409;56.294;14.480;2022-08-20T04:58:54;9.63;;;7.50;;
12689;SDS011;6409;56.294;14.480;2022-08-20T05:01:22;11.77;;;7.93;;
12689;SDS011;6409;56.294;14.480;2022-08-20T05:03:50;11.50;;;7.70;;
12689;SDS011;6409;56.294;14.480;2022-08-20T05:06:18;10.57;;;7.60;;
12689;SDS011;6409;56.294;14.480;2022-08-20T05:08:47;10.43;;;7.10;;
12689;SDS011;6409;56.294;14.480;2022-08-20T05:11:14;10.00;;;6.90;;
12689;SDS011;6409;56.294;14.480;2022-08-20T05:13:41;10.23;;;7.03;;
12689;SDS011;6409;56.294;14.480;2022-08-20T05:16:08;10.00;;;6.80;;
12689;SDS011;6409;56.294;14.480;2022-08-20T05:18:35;9.33;;;6.60;;
12689;SDS011;6409;56.294;14.480;2022-08-20T05:21:02;9.17;;;7.00;;
12689;SDS011;6409;56.294;14.480;2022-08-20T05:23:29;9.27;;;7.07;;
12689;SDS011;6409;56.294;14.480;2022-08-20T05:25:58;9.33;;;6.70;;
12689;SDS011;6409;56.294;14.480;2022-08-20T05:28:27;9.30;;;5.73;;
12689;SDS011;6409;56.294;14.480;2022-08-20T05:30:57;12.50;;;6.67;;
12689;SDS011;6409;56.294;14.480;2022-08-20T05:33:24;9.40;;;6.27;;
12689;SDS011;6409;56.294;14.480;2022-08-20T05:35:52;10.23;;;6.63;;
12689;SDS011;6409;56.294;14.480;2022-08-20T05:38:20;9.70;;;6.13;;
12689;SDS011;6409;56.294;14.480;2022-08-20T05:40:50;8.93;;;6.47;;
12689;SDS011;6409;56.294;14.480;2022-08-20T05:43:19;10.00;;;6.37;;
12689;SDS011;6409;56.294;14.480;2022-08-20T05:45:47;9.17;;;5.90;;
12689;SDS011;6409;56.294;14.480;2022-08-20T05:48:16;8.23;;;5.97;;
12689;SDS011;6409;56.294;14.480;2022-08-20T05:50:44;7.87;;;5.30;;
12689;SDS011;6409;56.294;14.480;2022-08-20T05:53:14;8.20;;;5.77;;
12689;SDS011;6409;56.294;14.480;2022-08-20T05:55:41;9.27;;;6.07;;
12689;SDS011;6409;56.294;14.480;2022-08-20T05:58:13;7.77;;;5.77;;
12689;SDS011;6409;56.294;14.480;2022-08-20T06:00:44;10.53;;;5.77;;
12689;SDS011;6409;56.294;14.480;2022-08-20T06:03:11;6.70;;;5.20;;
12689;SDS011;6409;56.294;14.480;2022-08-20T06:05:55;7.33;;;5.37;;
12689;SDS011;6409;56.294;14.480;2022-08-20T06:08:22;10.20;;;5.53;;
12689;SDS011;6409;56.294;14.480;2022-08-20T06:10:49;6.60;;;5.57;;
12689;SDS011;6409;56.294;14.480;2022-08-20T06:13:16;8.10;;;5.77;;
12689;SDS011;6409;56.294;14.480;2022-08-20T06:15:44;7.87;;;5.20;;
12689;SDS011;6409;56.294;14.480;2022-08-20T06:18:11;6.77;;;5.23;;
12689;SDS011;6409;56.294;14.480;2022-08-20T06:20:38;7.33;;;5.23;;
12689;SDS011;6409;56.294;14.480;2022-08-20T06:23:05;8.17;;;5.07;;
12689;SDS011;6409;56.294;14.480;2022-08-20T06:25:33;6.43;;;4.90;;
12689;SDS011;6409;56.294;14.480;2022-08-20T06:28:00;7.07;;;5.13;;
12689;SDS011;6409;56.294;14.480;2022-08-20T06:30:28;5.77;;;4.43;;
12689;SDS011;6409;56.294;14.480;2022-08-20T06:32:57;5.97;;;4.40;;
12689;SDS011;6409;56.294;14.480;2022-08-20T06:35:23;9.57;;;5.37;;
12689;SDS011;6409;56.294;14.480;2022-08-20T06:37:50;5.43;;;4.43;;
12689;SDS011;6409;56.294;14.480;2022-08-20T06:40:18;5.63;;;4.60;;
12689;SDS011;6409;56.294;14.480;2022-08-20T06:42:47;5.57;;;4.43;;
12689;SDS011;6409;56.294;14.480;2022-08-20T06:45:15;5.90;;;4.53;;
12689;SDS011;6409;56.294;14.480;2022-08-20T06:47:44;5.20;;;3.77;;
12689;SDS011;6409;56.294;14.480;2022-08-20T06:50:15;5.57;;;4.20;;
12689;SDS011;6409;56.294;14.480;2022-08-20T06:52:43;7.90;;;3.90;;
12689;SDS011;6409;56.294;14.480;2022-08-20T06:55:17;5.97;;;3.80;;
12689;SDS011;6409;56.294;14.480;2022-08-20T06:57:44;5.27;;;3.60;;
12689;SDS011;6409;56.294;14.480;2022-08-20T07:00:13;4.10;;;3.53;;
12689;SDS011;6409;56.294;14.480;2022-08-20T07:02:42;5.60;;;3.97;;
12689;SDS011;6409;56.294;14.480;2022-08-20T07:05:10;5.13;;;2.97;;
12689;SDS011;6409;56.294;14.480;2022-08-20T07:07:38;3.90;;;3.23;;
12689;SDS011;6409;56.294;14.480;2022-08-20T07:10:11;3.27;;;2.97;;
12689;SDS011;6409;56.294;14.480;2022-08-20T07:12:40;2.83;;;2.60;;
12689;SDS011;6409;56.294;14.480;2022-08-20T07:15:09;2.70;;;2.50;;
12689;SDS011;6409;56.294;14.480;2022-08-20T07:17:38;4.30;;;2.90;;
12689;SDS011;6409;56.294;14.480;2022-08-20T07:20:06;2.80;;;2.50;;
12689;SDS011;6409;56.294;14.480;2022-08-20T07:22:36;2.30;;;2.10;;
12689;SDS011;6409;56.294;14.480;2022-08-20T07:25:08;2.40;;;2.13;;
12689;SDS011;6409;56.294;14.480;2022-08-20T07:27:38;2.70;;;2.27;;
12689;SDS011;6409;56.294;14.480;2022-08-20T07:30:08;2.53;;;2.33;;
12689;SDS011;6409;56.294;14.480;2022-08-20T07:32:54;2.17;;;2.07;;
12689;SDS011;6409;56.294;14.480;2022-08-20T07:35:22;2.30;;;2.10;;
12689;SDS011;6409;56.294;14.480;2022-08-20T07:37:53;2.57;;;2.30;;
12689;SDS011;6409;56.294;14.480;2022-08-20T07:40:22;3.33;;;2.20;;
12689;SDS011;6409;56.294;14.480;2022-08-20T07:42:52;2.80;;;2.10;;
12689;SDS011;6409;56.294;14.480;2022-08-20T07:45:21;2.17;;;2.00;;
12689;SDS011;6409;56.294;14.480;2022-08-20T07:47:49;2.10;;;1.90;;
12689;SDS011;6409;56.294;14.480;2022-08-20T07:50:19;3.03;;;2.10;;
12689;SDS011;6409;56.294;14.480;2022-08-20T07:52:50;1.70;;;1.60;;
12689;SDS011;6409;56.294;14.480;2022-08-20T07:55:20;1.70;;;1.60;;
12689;SDS011;6409;56.294;14.480;2022-08-20T07:57:49;2.33;;;2.00;;
12689;SDS011;6409;56.294;14.480;2022-08-20T08:00:18;1.87;;;1.77;;
12689;SDS011;6409;56.294;14.480;2022-08-20T08:02:47;4.70;;;1.80;;
12689;SDS011;6409;56.294;14.480;2022-08-20T08:05:15;1.77;;;1.63;;
12689;SDS011;6409;56.294;14.480;2022-08-20T08:07:44;3.20;;;1.90;;
12689;SDS011;6409;56.294;14.480;2022-08-20T08:10:14;1.73;;;1.60;;
12689;SDS011;6409;56.294;14.480;2022-08-20T08:12:48;1.60;;;1.50;;
12689;SDS011;6409;56.294;14.480;2022-08-20T08:15:26;1.63;;;1.53;;
12689;SDS011;6409;56.294;14.480;2022-08-20T08:17:57;1.63;;;1.53;;
12689;SDS011;6409;56.294;14.480;2022-08-20T08:20:30;1.57;;;1.47;;
12689;SDS011;6409;56.294;14.480;2022-08-20T08:22:58;2.10;;;1.50;;
12689;SDS011;6409;56.294;14.480;2022-08-20T08:25:26;1.77;;;1.53;;
12689;SDS011;6409;56.294;14.480;2022-08-20T08:27:55;1.57;;;1.47;;
12689;SDS011;6409;56.294;14.480;2022-08-20T08:30:24;1.80;;;1.70;;
12689;SDS011;6409;56.294;14.480;2022-08-20T08:32:53;2.27;;;1.67;;
12689;SDS011;6409;56.294;14.480;2022-08-20T08:35:38;1.93;;;1.50;;
12689;SDS011;6409;56.294;14.480;2022-08-20T08:38:07;1.67;;;1.57;;
12689;SDS011;6409;56.294;14.480;2022-08-20T08:40:36;1.60;;;1.50;;
12689;SDS011;6409;56.294;14.480;2022-08-20T08:43:05;3.17;;;1.47;;
12689;SDS011;6409;56.294;14.480;2022-08-20T08:45:37;1.27;;;1.17;;
12689;SDS011;6409;56.294;14.480;2022-08-20T08:48:10;8.23;;;1.83;;
12689;SDS011;6409;56.294;14.480;2022-08-20T08:50:38;1.37;;;1.27;;
12689;SDS011;6409;56.294;14.480;2022-08-20T08:53:09;1.30;;;1.20;;
12689;SDS011;6409;56.294;14.480;2022-08-20T08:55:44;1.40;;;1.30;;
12689;SDS011;6409;56.294;14.480;2022-08-20T08:58:13;1.53;;;1.33;;
12689;SDS011;6409;56.294;14.480;2022-08-20T09:00:41;2.53;;;1.37;;
12689;SDS011;6409;56.294;14.480;2022-08-20T09:03:11;4.90;;;1.30;;
12689;SDS011;6409;56.294;14.480;2022-08-20T09:05:43;1.40;;;1.30;;
12689;SDS011;6409;56.294;14.480;2022-08-20T09:08:15;1.80;;;1.43;;
12689;SDS011;6409;56.294;14.480;2022-08-20T09:10:45;3.30;;;1.70;;
12689;SDS011;6409;56.294;14.480;2022-08-20T09:13:15;1.50;;;1.40;;
12689;SDS011;6409;56.294;14.480;2022-08-20T09:15:43;1.30;;;1.20;;
12689;SDS011;6409;56.294;14.480;2022-08-20T09:18:11;1.40;;;1.30;;
12689;SDS011;6409;56.294;14.480;2022-08-20T09:20:40;1.37;;;1.27;;
12689;SDS011;6409;56.294;14.480;2022-08-20T09:23:08;1.80;;;1.50;;
12689;SDS011;6409;56.294;14.480;2022-08-20T09:25:36;2.07;;;1.40;;
12689;SDS011;6409;56.294;14.480;2022-08-20T09:28:04;1.47;;;1.37;;
12689;SDS011;6409;56.294;14.480;2022-08-20T09:30:34;1.40;;;1.30;;
12689;SDS011;6409;56.294;14.480;2022-08-20T09:33:02;1.70;;;1.50;;
12689;SDS011;6409;56.294;14.480;2022-08-20T09:35:30;1.83;;;1.37;;
12689;SDS011;6409;56.294;14.480;2022-08-20T09:37:58;1.83;;;1.10;;
12689;SDS011;6409;56.294;14.480;2022-08-20T09:40:27;1.60;;;1.50;;
12689;SDS011;6409;56.294;14.480;2022-08-20T09:42:54;1.40;;;1.30;;
12689;SDS011;6409;56.294;14.480;2022-08-20T09:45:23;2.87;;;1.73;;
12689;SDS011;6409;56.294;14.480;2022-08-20T09:47:52;3.17;;;1.60;;
12689;SDS011;6409;56.294;14.480;2022-08-20T09:50:20;2.70;;;1.40;;
12689;SDS011;6409;56.294;14.480;2022-08-20T09:52:49;1.90;;;1.47;;
12689;SDS011;6409;56.294;14.480;2022-08-20T09:55:19;1.40;;;1.30;;
12689;SDS011;6409;56.294;14.480;2022-08-20T09:57:55;2.47;;;1.43;;
12689;SDS011;6409;56.294;14.480;2022-08-20T10:00:24;1.60;;;1.40;;
12689;SDS011;6409;56.294;14.480;2022-08-20T10:02:53;1.37;;;1.27;;
12689;SDS011;6409;56.294;14.480;2022-08-20T10:05:21;1.47;;;1.37;;
12689;SDS011;6409;56.294;14.480;2022-08-20T10:07:49;1.70;;;1.53;;
12689;SDS011;6409;56.294;14.480;2022-08-20T10:10:17;1.33;;;1.23;;
12689;SDS011;6409;56.294;14.480;2022-08-20T10:12:45;1.37;;;1.27;;
12689;SDS011;6409;56.294;14.480;2022-08-20T10:15:13;1.50;;;1.40;;
12689;SDS011;6409;56.294;14.480;2022-08-20T10:17:42;1.33;;;1.23;;
12689;SDS011;6409;56.294;14.480;2022-08-20T10:20:12;1.55;;;1.45;;
12689;SDS011;6409;56.294;14.480;2022-08-20T10:22:40;1.50;;;1.40;;
12689;SDS011;6409;56.294;14.480;2022-08-20T10:25:08;1.30;;;1.20;;
12689;SDS011;6409;56.294;14.480;2022-08-20T10:27:36;2.13;;;1.40;;
12689;SDS011;6409;56.294;14.480;2022-08-20T10:30:03;1.77;;;1.40;;
12689;SDS011;6409;56.294;14.480;2022-08-20T10:32:31;3.17;;;1.77;;
12689;SDS011;6409;56.294;14.480;2022-08-20T10:34:58;1.23;;;1.20;;
12689;SDS011;6409;56.294;14.480;2022-08-20T10:37:26;1.70;;;1.60;;
12689;SDS011;6409;56.294;14.480;2022-08-20T10:39:53;1.35;;;1.25;;
12689;SDS011;6409;56.294;14.480;2022-08-20T10:42:20;3.22;;;1.58;;
12689;SDS011;6409;56.294;14.480;2022-08-20T10:44:48;1.67;;;1.50;;
12689;SDS011;6409;56.294;14.480;2022-08-20T10:47:16;1.55;;;1.45;;
12689;SDS011;6409;56.294;14.480;2022-08-20T10:49:44;1.30;;;1.30;;
12689;SDS011;6409;56.294;14.480;2022-08-20T10:52:11;1.48;;;1.38;;
12689;SDS011;6409;56.294;14.480;2022-08-20T10:54:40;1.40;;;1.40;;
12689;SDS011;6409;56.294;14.480;2022-08-20T10:57:07;1.73;;;1.38;;
12689;SDS011;6409;56.294;14.480;2022-08-20T10:59:37;2.42;;;1.65;;
12689;SDS011;6409;56.294;14.480;2022-08-20T11:02:05;1.70;;;1.60;;
12689;SDS011;6409;56.294;14.480;2022-08-20T11:04:32;1.50;;;1.40;;
12689;SDS011;6409;56.294;14.480;2022-08-20T11:07:08;1.80;;;1.70;;
12689;SDS011;6409;56.294;14.480;2022-08-20T11:09:36;3.30;;;1.95;;
12689;SDS011;6409;56.294;14.480;2022-08-20T11:12:05;1.77;;;1.67;;
12689;SDS011;6409;56.294;14.480;2022-08-20T11:14:32;1.77;;;1.67;;
12689;SDS011;6409;56.294;14.480;2022-08-20T11:16:59;1.73;;;1.58;;
12689;SDS011;6409;56.294;14.480;2022-08-20T11:19:26;1.95;;;1.77;;
12689;SDS011;6409;56.294;14.480;2022-08-20T11:21:53;2.00;;;1.90;;
12689;SDS011;6409;56.294;14.480;2022-08-20T11:24:20;2.80;;;1.88;;
12689;SDS011;6409;56.294;14.480;2022-08-20T11:26:47;1.92;;;1.83;;
12689;SDS011;6409;56.294;14.480;2022-08-20T11:29:16;1.98;;;1.75;;
12689;SDS011;6409;56.294;14.480;2022-08-20T11:31:44;1.80;;;1.70;;
12689;SDS011;6409;56.294;14.480;2022-08-20T11:34:11;2.35;;;2.08;;
12689;SDS011;6409;56.294;14.480;2022-08-20T11:36:38;1.85;;;1.75;;
12689;SDS011;6409;56.294;14.480;2022-08-20T11:39:05;1.63;;;1.52;;
12689;SDS011;6409;56.294;14.480;2022-08-20T11:41:32;2.10;;;1.90;;
12689;SDS011;6409;56.294;14.480;2022-08-20T11:43:58;1.85;;;1.75;;
12689;SDS011;6409;56.294;14.480;2022-08-20T11:46:27;2.60;;;2.10;;
12689;SDS011;6409;56.294;14.480;2022-08-20T11:48:54;8.00;;;1.92;;
12689;SDS011;6409;56.294;14.480;2022-08-20T11:51:20;2.47;;;1.95;;
12689;SDS011;6409;56.294;14.480;2022-08-20T11:53:47;4.03;;;2.05;;
12689;SDS011;6409;56.294;14.480;2022-08-20T11:56:14;10.48;;;2.00;;
12689;SDS011;6409;56.294;14.480;2022-08-20T11:58:42;2.72;;;2.00;;
12689;SDS011;6409;56.294;14.480;2022-08-20T12:01:10;2.03;;;1.92;;
12689;SDS011;6409;56.294;14.480;2022-08-20T12:03:38;1.98;;;1.88;;
12689;SDS011;6409;56.294;14.480;2022-08-20T12:06:05;3.65;;;2.20;;
12689;SDS011;6409;56.294;14.480;2022-08-20T12:08:32;5.65;;;2.17;;
12689;SDS011;6409;56.294;14.480;2022-08-20T12:11:00;2.55;;;1.92;;
12689;SDS011;6409;56.294;14.480;2022-08-20T12:13:28;1.90;;;1.70;;
12689;SDS011;6409;56.294;14.480;2022-08-20T12:15:56;2.03;;;1.90;;
12689;SDS011;6409;56.294;14.480;2022-08-20T12:18:23;2.67;;;2.20;;
12689;SDS011;6409;56.294;14.480;2022-08-20T12:20:51;2.08;;;1.90;;
12689;SDS011;6409;56.294;14.480;2022-08-20T12:23:18;3.08;;;2.15;;
12689;SDS011;6409;56.294;14.480;2022-08-20T12:25:45;2.42;;;2.20;;
12689;SDS011;6409;56.294;14.480;2022-08-20T12:28:12;4.85;;;2.42;;
12689;SDS011;6409;56.294;14.480;2022-08-20T12:30:39;4.60;;;2.05;;
12689;SDS011;6409;56.294;14.480;2022-08-20T12:33:06;2.67;;;2.33;;
12689;SDS011;6409;56.294;14.480;2022-08-20T12:35:33;3.22;;;2.35;;
12689;SDS011;6409;56.294;14.480;2022-08-20T12:38:03;5.50;;;3.08;;
12689;SDS011;6409;56.294;14.480;2022-08-20T12:40:30;3.92;;;2.13;;
12689;SDS011;6409;56.294;14.480;2022-08-20T12:42:58;4.82;;;2.08;;
12689;SDS011;6409;56.294;14.480;2022-08-20T12:45:26;2.45;;;2.28;;
12689;SDS011;6409;56.294;14.480;2022-08-20T12:47:56;3.15;;;2.22;;
12689;SDS011;6409;56.294;14.480;2022-08-20T12:50:26;2.33;;;2.13;;
12689;SDS011;6409;56.294;14.480;2022-08-20T12:52:54;2.20;;;2.00;;
12689;SDS011;6409;56.294;14.480;2022-08-20T12:55:22;2.47;;;2.20;;
12689;SDS011;6409;56.294;14.480;2022-08-20T12:57:50;2.25;;;2.05;;
12689;SDS011;6409;56.294;14.480;2022-08-20T13:00:19;5.20;;;1.95;;
12689;SDS011;6409;56.294;14.480;2022-08-20T13:02:47;2.30;;;2.10;;
12689;SDS011;6409;56.294;14.480;2022-08-20T13:05:14;3.25;;;2.20;;
12689;SDS011;6409;56.294;14.480;2022-08-20T13:07:42;4.55;;;2.50;;
12689;SDS011;6409;56.294;14.480;2022-08-20T13:10:10;5.50;;;2.20;;
12689;SDS011;6409;56.294;14.480;2022-08-20T13:12:40;2.88;;;2.00;;
12689;SDS011;6409;56.294;14.480;2022-08-20T13:15:07;2.22;;;1.90;;
12689;SDS011;6409;56.294;14.480;2022-08-20T13:17:35;2.05;;;1.95;;
12689;SDS011;6409;56.294;14.480;2022-08-20T13:20:02;2.15;;;2.00;;
12689;SDS011;6409;56.294;14.480;2022-08-20T13:22:30;2.03;;;1.92;;
12689;SDS011;6409;56.294;14.480;2022-08-20T13:24:57;2.22;;;2.03;;
12689;SDS011;6409;56.294;14.480;2022-08-20T13:27:24;1.95;;;1.85;;
12689;SDS011;6409;56.294;14.480;2022-08-20T13:29:53;1.80;;;1.70;;
12689;SDS011;6409;56.294;14.480;2022-08-20T13:32:22;1.90;;;1.80;;
12689;SDS011;6409;56.294;14.480;2022-08-20T13:34:49;2.30;;;1.90;;
12689;SDS011;6409;56.294;14.480;2022-08-20T13:37:17;2.35;;;2.15;;
12689;SDS011;6409;56.294;14.480;2022-08-20T13:39:44;3.08;;;1.80;;
12689;SDS011;6409;56.294;14.480;2022-08-20T13:42:12;1.90;;;1.80;;
12689;SDS011;6409;56.294;14.480;2022-08-20T13:44:40;1.70;;;1.60;;
12689;SDS011;6409;56.294;14.480;2022-08-20T13:47:15;2.25;;;1.83;;
12689;SDS011;6409;56.294;14.480;2022-08-20T13:49:43;2.00;;;1.80;;
12689;SDS011;6409;56.294;14.480;2022-08-20T13:52:10;1.95;;;1.85;;
12689;SDS011;6409;56.294;14.480;2022-08-20T13:54:37;1.60;;;1.50;;
12689;SDS011;6409;56.294;14.480;2022-08-20T13:57:05;1.70;;;1.60;;
12689;SDS011;6409;56.294;14.480;2022-08-20T13:59:36;2.05;;;1.85;;
12689;SDS011;6409;56.294;14.480;2022-08-20T14:02:03;1.58;;;1.48;;
12689;SDS011;6409;56.294;14.480;2022-08-20T14:04:32;3.10;;;1.70;;
12689;SDS011;6409;56.294;14.480;2022-08-20T14:07:07;6.03;;;1.85;;
12689;SDS011;6409;56.294;14.480;2022-08-20T14:09:35;2.20;;;2.00;;
12689;SDS011;6409;56.294;14.480;2022-08-20T14:12:03;5.82;;;1.67;;
12689;SDS011;6409;56.294;14.480;2022-08-20T14:14:30;2.05;;;1.73;;
12689;SDS011;6409;56.294;14.480;2022-08-20T14:16:57;2.00;;;1.90;;
12689;SDS011;6409;56.294;14.480;2022-08-20T14:19:24;1.48;;;1.45;;
12689;SDS011;6409;56.294;14.480;2022-08-20T14:21:52;1.50;;;1.40;;
12689;SDS011;6409;56.294;14.480;2022-08-20T14:24:19;1.58;;;1.48;;
12689;SDS011;6409;56.294;14.480;2022-08-20T14:26:46;1.55;;;1.45;;
12689;SDS011;6409;56.294;14.480;2022-08-20T14:29:13;1.40;;;1.40;;
12689;SDS011;6409;56.294;14.480;2022-08-20T14:31:43;1.40;;;1.40;;
12689;SDS011;6409;56.294;14.480;2022-08-20T14:34:10;1.60;;;1.50;;
12689;SDS011;6409;56.294;14.480;2022-08-20T14:36:37;1.50;;;1.50;;
12689;SDS011;6409;56.294;14.480;2022-08-20T14:39:05;1.88;;;1.77;;
12689;SDS011;6409;56.294;14.480;2022-08-20T14:41:32;1.80;;;1.70;;
12689;SDS011;6409;56.294;14.480;2022-08-20T14:43:59;1.88;;;1.77;;
12689;SDS011;6409;56.294;14.480;2022-08-20T14:46:26;2.20;;;2.05;;
12689;SDS011;6409;56.294;14.480;2022-08-20T14:48:53;1.90;;;1.80;;
12689;SDS011;6409;56.294;14.480;2022-08-20T14:51:19;1.90;;;1.80;;
12689;SDS011;6409;56.294;14.480;2022-08-20T14:53:46;1.88;;;1.77;;
12689;SDS011;6409;56.294;14.480;2022-08-20T14:56:16;2.00;;;1.90;;